createdAt,value
2018-08-03T05:54:10.950Z,6624.00
2018-08-03T05:55:10.832Z,6672.00
2018-08-03T05:56:10.829Z,6732.00
2018-08-03T05:57:10.874Z,6776.00
2018-08-03T05:58:10.829Z,6820.00
2018-08-03T05:59:10.863Z,6876.00
2018-08-03T06:00:10.891Z,6952.00
2018-08-03T06:01:11.002Z,7016.00
2018-08-03T06:02:12.945Z,7084.00
2018-08-03T06:03:11.035Z,7164.00
2018-08-03T06:04:10.746Z,7232.00
2018-08-03T06:05:10.951Z,7284.00
2018-08-03T06:06:10.895Z,7340.00
2018-08-03T06:07:10.884Z,7384.00
2018-08-03T06:08:10.914Z,7428.00
2018-08-03T06:09:10.910Z,7476.00
2018-08-03T06:10:10.844Z,7548.00
2018-08-03T06:11:10.856Z,7620.00
2018-08-03T06:13:46.626Z,7796.00
2018-08-03T06:15:56.625Z,7916.00
2018-08-03T06:18:12.853Z,8056.00
2018-08-03T06:21:07.297Z,8224.00
2018-08-03T06:21:44.376Z,8288.00
2018-08-03T06:22:44.341Z,8360.00
2018-08-03T06:23:44.465Z,8436.00
2018-08-03T06:24:44.333Z,8516.00
2018-08-03T06:25:44.353Z,8592.00
2018-08-03T06:26:46.157Z,8660.00
2018-08-03T06:27:44.233Z,8736.00
2018-08-03T06:28:44.036Z,8804.00
2018-08-03T06:29:44.286Z,8868.00
2018-08-03T06:30:44.037Z,8928.00
2018-08-03T06:31:51.339Z,8984.00
2018-08-03T06:32:44.539Z,9044.00
2018-08-03T06:33:44.280Z,9100.00
2018-08-03T06:34:43.997Z,9160.00
2018-08-03T06:35:44.108Z,9240.00
2018-08-03T06:36:44.045Z,9340.00
2018-08-03T06:37:44.563Z,9432.00
2018-08-03T06:38:43.927Z,9528.00
2018-08-03T06:39:43.938Z,9600.00
2018-08-03T06:40:43.929Z,9660.00
2018-08-03T06:41:43.911Z,9700.00
2018-08-03T06:42:43.900Z,9772.00
2018-08-03T06:43:44.025Z,9832.00
2018-08-03T06:44:43.873Z,9912.00
2018-08-03T06:45:43.858Z,9992.00
2018-08-03T06:46:43.842Z,10068.00
2018-08-03T06:47:43.839Z,10112.00
2018-08-03T06:48:43.835Z,10148.00
2018-08-03T06:49:43.863Z,10216.00
2018-08-03T06:50:43.819Z,10288.00
2018-08-03T06:51:43.824Z,10372.00
2018-08-03T06:52:43.781Z,10456.00
2018-08-03T06:53:43.921Z,10524.00
2018-08-03T06:54:44.055Z,10600.00
2018-08-03T06:55:43.811Z,10664.00
2018-08-03T06:56:43.908Z,10736.00
2018-08-03T06:57:43.893Z,10812.00
2018-08-03T12:39:06.334Z,106464.00
2018-08-03T12:40:06.083Z,98592.00
2018-08-03T12:41:06.104Z,90240.00
2018-08-03T12:42:06.076Z,95680.00
2018-08-03T12:43:06.067Z,105888.00
2018-08-03T12:44:06.273Z,91328.00
2018-08-03T12:45:06.218Z,100832.00
2018-08-03T12:46:06.313Z,107616.00
2018-08-03T12:47:06.217Z,117824.00
2018-08-03T12:48:06.215Z,109824.00
2018-08-03T12:49:06.206Z,108448.00
2018-08-03T12:50:06.276Z,103488.00
2018-08-03T12:51:06.195Z,106528.00
2018-08-03T12:52:06.182Z,68928.00
2018-08-03T12:53:06.164Z,29184.00
2018-08-03T12:54:06.001Z,31712.00
2018-08-03T12:55:06.146Z,72224.00
2018-08-03T12:56:06.205Z,89728.00
2018-08-03T12:57:06.190Z,30080.00
2018-08-03T12:58:06.180Z,84064.00
2018-08-03T12:59:05.994Z,101056.00
2018-08-03T13:00:06.117Z,91616.00
2018-08-03T13:01:06.172Z,92256.00
2018-08-03T13:02:06.181Z,87456.00
2018-08-03T13:03:05.922Z,95264.00
2018-08-03T13:04:06.081Z,95712.00
2018-08-03T13:05:06.107Z,87616.00
2018-08-03T13:06:06.074Z,101920.00
2018-08-03T13:07:06.008Z,88800.00
2018-08-03T13:08:06.169Z,98144.00
2018-08-03T13:09:05.903Z,86688.00
2018-08-03T13:10:05.905Z,95456.00
2018-08-03T13:11:06.045Z,95712.00
2018-08-03T13:12:06.022Z,84768.00
2018-08-03T13:13:06.143Z,96800.00
2018-08-03T13:14:06.009Z,84864.00
2018-08-03T13:15:05.999Z,88544.00
2018-08-03T13:16:05.988Z,94944.00
2018-08-03T13:17:06.008Z,82816.00
2018-08-03T13:18:06.000Z,39680.00
2018-08-03T13:19:06.020Z,20576.00
2018-08-03T13:20:05.973Z,19488.00
2018-08-03T13:21:05.975Z,18528.00
2018-08-03T13:22:05.948Z,17864.00
2018-08-03T13:23:05.937Z,24960.00
2018-08-03T13:24:06.131Z,45280.00
2018-08-03T13:25:05.979Z,63072.00
2018-08-03T13:26:05.943Z,19104.00
2018-08-03T13:27:06.048Z,16816.00
2018-08-03T13:28:05.754Z,15480.00
2018-08-03T13:29:05.750Z,14068.00
2018-08-03T13:30:06.108Z,13128.00
2018-08-03T21:51:36.855Z,0.00
2018-08-03T21:52:36.735Z,0.00
2018-08-03T21:53:36.614Z,0.00
2018-08-03T21:54:36.623Z,0.00
2018-08-03T21:55:36.660Z,0.00
2018-08-03T21:56:36.782Z,0.00
2018-08-03T21:57:36.716Z,0.00
2018-08-03T21:58:36.990Z,0.00
2018-08-03T21:59:36.672Z,0.00
2018-08-03T22:00:36.942Z,0.00
2018-08-03T22:01:37.012Z,0.00
2018-08-03T22:02:36.866Z,0.00
2018-08-03T22:03:37.293Z,0.00
2018-08-03T22:04:36.545Z,0.00
2018-08-03T22:05:36.540Z,0.00
2018-08-03T22:06:36.546Z,0.00
2018-08-03T22:07:36.691Z,0.00
2018-08-03T22:08:36.634Z,0.00
2018-08-03T22:09:36.630Z,0.00
2018-08-03T22:10:36.531Z,0.00
2018-08-03T22:11:36.483Z,0.00
2018-08-03T22:12:36.612Z,0.00
2018-08-03T22:13:36.742Z,0.00
2018-08-03T22:14:36.444Z,0.00
2018-08-03T22:15:36.793Z,8.00
2018-08-03T22:16:36.575Z,4.00
2018-08-03T22:17:37.023Z,0.00
2018-08-03T22:18:36.576Z,0.00
2018-08-03T22:19:36.568Z,20.00
2018-08-03T22:20:37.806Z,4.00
2018-08-03T22:21:36.475Z,0.00
2018-08-03T22:23:28.130Z,0.00
2018-08-03T22:24:28.089Z,0.00
2018-08-03T22:25:27.929Z,0.00
2018-08-03T22:26:27.904Z,0.00
2018-08-03T22:27:27.881Z,0.00
2018-08-03T22:28:28.094Z,0.00
2018-08-03T22:29:28.029Z,0.00
2018-08-03T22:30:28.068Z,0.00
2018-08-03T22:31:28.014Z,0.00
2018-08-03T22:32:27.940Z,0.00
2018-08-03T22:33:27.991Z,0.00
2018-08-03T22:34:28.031Z,0.00
2018-08-03T22:35:27.981Z,0.00
2018-08-03T22:36:27.998Z,0.00
2018-08-03T22:37:27.954Z,0.00
2018-08-03T22:38:27.936Z,0.00
2018-08-03T22:39:27.935Z,0.00
2018-08-03T22:40:27.927Z,0.00
2018-08-03T22:41:28.027Z,0.00
2018-08-03T22:42:27.909Z,0.00
2018-08-03T22:43:27.903Z,0.00
2018-08-03T22:44:27.897Z,0.00
2018-08-03T22:45:27.932Z,0.00
2018-08-03T22:46:27.857Z,0.00
2018-08-03T22:47:27.882Z,0.00
2018-08-03T23:03:14.438Z,0.00
2018-08-03T23:04:14.669Z,0.00
2018-08-03T23:05:14.552Z,0.00
2018-08-03T23:06:14.538Z,0.00
2018-08-03T23:07:14.411Z,0.00
2018-08-03T23:08:14.474Z,0.00
2018-08-03T23:09:14.339Z,0.00
2018-08-03T23:10:14.418Z,0.00
2018-08-03T23:11:14.345Z,0.00
2018-08-03T23:12:14.316Z,0.00
2018-08-03T23:13:14.292Z,0.00
2018-08-03T23:14:14.294Z,0.00
2018-08-03T23:15:14.294Z,0.00
2018-08-03T23:16:14.388Z,0.00
2018-08-03T23:17:14.419Z,0.00
2018-08-03T23:18:14.247Z,0.00
2018-08-03T23:19:14.232Z,0.00
2018-08-03T23:20:14.390Z,0.00
2018-08-03T23:21:14.573Z,0.00
2018-08-03T23:22:14.368Z,0.00
2018-08-03T23:23:14.349Z,0.00
2018-08-03T23:24:14.339Z,0.00
2018-08-03T23:25:14.336Z,0.00
2018-08-03T23:26:14.217Z,0.00
2018-08-03T23:27:14.359Z,0.00
2018-08-03T23:28:14.300Z,0.00
2018-08-03T23:29:14.294Z,0.00
2018-08-03T23:30:14.284Z,0.00
2018-08-03T23:31:14.133Z,0.00
2018-08-03T23:32:14.352Z,0.00
2018-08-03T23:33:14.248Z,0.00
2018-08-03T23:34:14.241Z,0.00
2018-08-03T23:35:14.231Z,0.00
2018-08-03T23:36:14.218Z,0.00
2018-08-03T23:37:14.205Z,0.00
2018-08-03T23:38:14.236Z,0.00
2018-08-03T23:39:14.191Z,0.00
2018-08-03T23:40:14.176Z,0.00
2018-08-03T23:41:14.165Z,0.00
2018-08-03T23:42:14.152Z,0.00
2018-08-03T23:43:14.180Z,0.00
2018-08-03T23:44:14.128Z,0.00
2018-08-03T23:45:14.116Z,0.00
2018-08-03T23:46:14.109Z,0.00
2018-08-03T23:47:14.102Z,0.00
2018-08-03T23:48:14.095Z,0.00
2018-08-03T23:49:14.133Z,0.00
2018-08-03T23:50:13.943Z,0.00
2018-08-03T23:51:14.056Z,0.00
2018-08-03T23:52:14.046Z,0.00
2018-08-03T23:53:14.029Z,0.00
2018-08-03T23:54:14.113Z,0.00
2018-08-03T23:55:14.016Z,0.00
2018-08-03T23:56:14.005Z,0.00
2018-08-03T23:57:13.993Z,0.00
2018-08-03T23:58:13.986Z,0.00
2018-08-03T23:59:13.976Z,0.00
